Time;durP1;ratioP1;P1;durP2;ratioP2;P2;SDS_P1;SDS_P2;PMS_P1;PMS_P2;Temp;Humidity;BMP_temperature;BMP_pressure;BME280_temperature;BME280_humidity;BME280_pressure;Samples;Min_cycle;Max_cycle;Signal;HPM_P1;HPM_P2
2022/08/17 00:01:16;;;;;;;0.10;0.10;;;;;;;16.82;48.93;101052.69;7368294;19;20018;-61
2022/08/17 00:03:44;;;;;;;0.00;0.00;;;;;;;16.79;48.60;101055.47;7369303;19;20011;-61
2022/08/17 00:06:19;;;;;;;0.00;0.00;;;;;;;16.77;48.65;101049.41;7367720;19;20025;-61
2022/08/17 00:08:48;;;;;;;0.00;0.00;;;;;;;16.72;49.17;101043.47;7368621;19;20006;-62
2022/08/17 00:11:20;;;;;;;0.00;0.00;;;;;;;16.73;49.25;101047.84;7368845;19;20007;-62
2022/08/17 00:13:52;;;;;;;0.00;0.00;;;;;;;16.72;49.05;101043.47;7367618;19;20011;-62
2022/08/17 00:16:31;;;;;;;0.00;0.00;;;;;;;16.71;48.63;101049.66;7368848;19;20018;-61
2022/08/17 00:18:58;;;;;;;0.00;0.00;;;;;;;16.67;49.42;101047.19;7367250;19;20007;-61
2022/08/17 00:21:24;;;;;;;0.00;0.00;;;;;;;16.51;50.09;101024.09;7367809;19;20026;-61
2022/08/17 00:23:50;;;;;;;0.00;0.00;;;;;;;16.62;49.46;101044.75;7367739;19;20039;-62
2022/08/17 00:26:16;;;;;;;0.00;0.00;;;;;;;16.63;50.25;101050.91;7367921;19;20006;-61
2022/08/17 00:28:42;;;;;;;0.00;0.00;;;;;;;16.61;50.21;101049.16;7369062;19;20031;-62
2022/08/17 00:31:09;;;;;;;0.00;0.00;;;;;;;16.61;49.86;101049.16;7368112;19;20018;-63
2022/08/17 00:33:37;;;;;;;0.00;0.00;;;;;;;16.51;50.16;101026.75;7369229;19;20014;-62
2022/08/17 00:36:04;;;;;;;0.00;0.00;;;;;;;16.61;49.94;101049.16;7368579;19;20006;-62
2022/08/17 00:38:31;;;;;;;0.03;0.03;;;;;;;16.60;49.71;101046.59;7367468;19;20014;-63
2022/08/17 00:41:00;;;;;;;0.00;0.00;;;;;;;16.60;50.13;101046.59;7368854;19;20070;-64
2022/08/17 00:43:36;;;;;;;0.00;0.00;;;;;;;16.62;50.32;101034.19;7367476;19;20010;-61
2022/08/17 00:46:14;;;;;;;0.00;0.00;;;;;;;16.66;50.03;101034.94;7367710;19;20476;-62
2022/08/17 00:48:41;;;;;;;0.00;0.00;;;;;;;16.59;50.64;101039.63;7369223;19;20017;-61
2022/08/17 00:51:15;;;;;;;0.00;0.00;;;;;;;16.63;50.07;101035.94;7365372;19;20607;-61
2022/08/17 00:53:44;;;;;;;0.00;0.00;;;;;;;16.61;50.40;101029.84;7368569;19;20017;-61
2022/08/17 00:56:12;;;;;;;0.00;0.00;;;;;;;16.62;50.55;101031.56;7367366;19;20010;-62
2022/08/17 00:58:38;;;;;;;0.00;0.00;;;;;;;16.61;50.42;101033.34;7368873;19;20016;-62
2022/08/17 01:01:07;;;;;;;0.00;0.00;;;;;;;16.59;50.85;101029.06;7368411;19;20006;-62
2022/08/17 01:03:36;;;;;;;0.00;0.00;;;;;;;16.59;50.43;101023.81;7367548;19;20020;-62
2022/08/17 01:06:03;;;;;;;0.00;0.00;;;;;;;16.56;51.11;101030.03;7367541;19;20119;-62
2022/08/17 01:08:29;;;;;;;0.00;0.00;;;;;;;16.55;50.92;101027.47;7362172;19;20036;-62
2022/08/17 01:11:00;;;;;;;0.00;0.00;;;;;;;16.47;50.73;101013.75;7366730;19;20509;-62
2022/08/17 01:13:26;;;;;;;0.00;0.00;;;;;;;16.51;51.13;101024.09;7369004;19;20567;-61
2022/08/17 01:15:57;;;;;;;0.00;0.00;;;;;;;16.54;50.94;101031.03;7364930;19;20030;-61
2022/08/17 01:18:25;;;;;;;0.00;0.00;;;;;;;16.41;51.45;101006.09;7367545;19;20025;-58
2022/08/17 01:20:52;;;;;;;;;;;;;;;16.54;49.07;101016.09;7369837;19;20060;-62
2022/08/17 01:23:21;;;;;;;0.00;0.00;;;;;;;16.52;51.50;101022.31;7367540;19;19922;-62
2022/08/17 01:25:54;;;;;;;0.00;0.00;;;;;;;16.51;50.89;101023.25;7365349;19;20031;-62
2022/08/17 01:28:21;;;;;;;0.00;0.00;;;;;;;16.50;51.05;101024.19;7369111;19;20009;-62
2022/08/17 01:30:47;;;;;;;;;;;;;;;16.52;49.54;101027.59;7367319;19;20020;-62
2022/08/17 01:33:13;;;;;;;0.00;0.00;;;;;;;16.46;51.88;101026.09;7366738;19;20497;-62
2022/08/17 01:35:39;;;;;;;0.00;0.00;;;;;;;16.48;51.53;101028.69;7363354;19;20470;-61
2022/08/17 01:38:05;;;;;;;0.00;0.00;;;;;;;16.47;51.76;101029.56;7369096;19;20393;-62
2022/08/17 01:40:45;;;;;;;0.00;0.00;;;;;;;16.46;52.25;101033.13;7364540;19;20365;-61
2022/08/17 01:43:20;;;;;;;0.00;0.00;;;;;;;16.47;51.83;101029.56;7367950;19;20014;-62
2022/08/17 01:45:50;;;;;;;0.00;0.00;;;;;;;16.46;52.14;101041.03;7366665;19;20007;-62
2022/08/17 01:48:18;;;;;;;0.00;0.00;;;;;;;16.46;52.42;101041.03;7367013;19;20488;-62
2022/08/17 01:50:44;;;;;;;0.00;0.00;;;;;;;16.45;52.43;101042.81;7366893;19;20086;-61
2022/08/17 01:53:15;;;;;;;0.00;0.00;;;;;;;16.47;52.09;101034.84;7367360;19;21319;-62
2022/08/17 01:55:54;;;;;;;0.00;0.00;;;;;;;16.40;50.99;101030.75;7365475;19;20006;-62
2022/08/17 01:58:20;;;;;;;0.00;0.00;;;;;;;16.38;52.27;101032.63;7359189;19;20014;-62
2022/08/17 02:00:50;;;;;;;0.00;0.00;;;;;;;16.47;52.57;101035.69;7364339;19;20006;-62
2022/08/17 02:03:20;;;;;;;0.00;0.00;;;;;;;16.47;52.64;101034.84;7364965;19;20543;-62
2022/08/17 02:05:47;;;;;;;0.00;0.00;;;;;;;16.37;52.66;101025.59;7363550;19;20017;-62
2022/08/17 02:08:15;;;;;;;0.00;0.00;;;;;;;16.48;52.26;101047.13;7365304;19;20071;-62
2022/08/17 02:10:42;;;;;;;0.00;0.00;;;;;;;16.47;52.60;101050.66;7364034;19;20041;-62
2022/08/17 02:13:08;;;;;;;0.00;0.00;;;;;;;16.46;52.67;101048.94;7361119;19;20024;-62
2022/08/17 02:15:33;;;;;;;0.00;0.00;;;;;;;16.45;52.39;101049.88;7364843;19;20026;-62
2022/08/17 02:18:00;;;;;;;0.10;0.10;;;;;;;16.46;52.68;101054.22;7363200;19;20006;-61
2022/08/17 02:20:30;;;;;;;0.00;0.00;;;;;;;16.46;53.18;101064.78;7363154;19;20014;-62
2022/08/17 02:22:55;;;;;;;0.00;0.00;;;;;;;16.46;52.97;101064.78;7363622;19;20034;-62
2022/08/17 02:25:21;;;;;;;0.00;0.00;;;;;;;16.45;52.94;101060.41;7362820;19;20010;-62
2022/08/17 02:27:46;;;;;;;0.00;0.00;;;;;;;16.43;53.45;101067.56;7363722;19;20010;-62
2022/08/17 02:30:13;;;;;;;0.00;0.00;;;;;;;16.45;53.34;101060.41;7361622;19;20078;-62
2022/08/17 02:32:39;;;;;;;0.00;0.00;;;;;;;16.43;53.31;101060.50;7362582;19;20045;-62
2022/08/17 02:35:06;;;;;;;0.00;0.00;;;;;;;16.43;53.04;101054.38;7360841;19;20014;-62
2022/08/17 02:37:32;;;;;;;0.00;0.00;;;;;;;16.43;53.33;101049.09;7364040;19;20454;-63
2022/08/17 02:39:58;;;;;;;0.00;0.00;;;;;;;16.43;52.83;101049.09;7363159;19;20179;-62
2022/08/17 02:42:32;;;;;;;0.00;0.00;;;;;;;16.46;52.28;101046.31;7363907;19;20011;-62
2022/08/17 02:44:59;;;;;;;0.00;0.00;;;;;;;16.32;53.60;101026.69;7369440;19;20370;-62
2022/08/17 02:47:25;;;;;;;0.00;0.00;;;;;;;16.44;53.07;101045.53;7369060;19;20026;-62
2022/08/17 02:49:51;;;;;;;0.03;0.03;;;;;;;16.46;53.35;101043.69;7371180;19;20425;-62
2022/08/17 02:52:17;;;;;;;0.00;0.00;;;;;;;16.47;53.47;101045.38;7366250;19;20144;-62
2022/08/17 02:54:43;;;;;;;0.03;0.03;;;;;;;16.46;53.27;101044.53;7370465;19;20134;-62
2022/08/17 02:57:09;;;;;;;0.00;0.00;;;;;;;16.47;53.58;101040.13;7368237;19;20283;-62
2022/08/17 02:59:36;;;;;;;0.10;0.10;;;;;;;16.46;53.73;101043.69;7370281;19;20676;-62
2022/08/17 03:02:03;;;;;;;0.00;0.00;;;;;;;16.43;53.22;101030.66;7368043;19;20002;-61
2022/08/17 03:04:29;;;;;;;0.10;0.10;;;;;;;16.48;53.65;101042.72;7370963;19;20011;-62
2022/08/17 03:06:54;;;;;;;0.00;0.00;;;;;;;16.48;53.76;101036.59;7367129;19;20018;-62
2022/08/17 03:09:19;;;;;;;0.00;0.00;;;;;;;16.48;54.21;101031.31;7368800;19;20541;-61
2022/08/17 03:11:45;;;;;;;0.00;0.00;;;;;;;16.47;54.22;101033.06;7369087;19;20408;-62
2022/08/17 03:14:10;;;;;;;0.00;0.00;;;;;;;16.46;53.77;101030.50;7360548;19;20025;-62
2022/08/17 03:16:36;;;;;;;0.00;0.00;;;;;;;16.45;54.07;101027.00;7367897;19;20007;-62
2022/08/17 03:19:01;;;;;;;0.00;0.00;;;;;;;16.46;53.73;101027.88;7363588;19;20067;-62
2022/08/17 03:21:27;;;;;;;0.00;0.00;;;;;;;16.46;53.98;101033.13;7368953;19;20566;-62
2022/08/17 03:23:52;;;;;;;0.00;0.00;;;;;;;16.46;53.85;101027.88;7370959;19;20040;-62
2022/08/17 03:26:17;;;;;;;0.00;0.00;;;;;;;16.47;53.99;101029.56;7370133;19;20006;-63
2022/08/17 03:28:43;;;;;;;0.00;0.00;;;;;;;16.45;53.80;101039.34;7371438;19;20010;-62
2022/08/17 03:31:08;;;;;;;0.00;0.00;;;;;;;16.46;54.65;101038.41;7369592;19;20479;-62
2022/08/17 03:33:34;;;;;;;0.00;0.00;;;;;;;16.47;54.35;101042.75;7369642;19;20378;-62
2022/08/17 03:35:59;;;;;;;0.00;0.00;;;;;;;16.47;54.00;101045.38;7369388;19;20010;-62
2022/08/17 03:38:25;;;;;;;0.00;0.00;;;;;;;16.47;54.11;101042.75;7370848;19;20014;-61
2022/08/17 03:40:52;;;;;;;0.00;0.00;;;;;;;16.45;53.84;101041.97;7369545;19;20359;-62
2022/08/17 03:43:19;;;;;;;0.00;0.00;;;;;;;16.49;53.87;101043.56;7370577;19;20007;-60
2022/08/17 03:57:07;;;;;;;0.00;0.00;;;;;;;16.54;53.41;101038.97;7370343;19;20018;-62
2022/08/17 03:59:34;;;;;;;0.08;0.08;;;;;;;16.52;54.00;101048.69;7369747;19;20831;-62
2022/08/17 04:02:03;;;;;;;0.00;0.00;;;;;;;16.52;54.22;101039.00;7369204;19;20562;-62
2022/08/17 04:04:29;;;;;;;0.00;0.00;;;;;;;16.46;54.26;101046.31;7369689;19;20014;-62
2022/08/17 04:06:54;;;;;;;0.00;0.00;;;;;;;16.50;53.90;101055.81;7369532;19;20033;-62
2022/08/17 04:09:20;;;;;;;0.00;0.00;;;;;;;16.49;54.52;101054.09;7370792;19;20022;-62
2022/08/17 04:11:45;;;;;;;0.00;0.00;;;;;;;16.51;54.10;101052.25;7368896;19;20027;-62
2022/08/17 04:14:11;;;;;;;0.00;0.00;;;;;;;16.51;53.96;101052.25;7368182;19;20054;-61
2022/08/17 04:16:36;;;;;;;0.00;0.00;;;;;;;16.50;54.47;101055.81;7372465;19;20389;-62
2022/08/17 04:19:04;;;;;;;0.00;0.00;;;;;;;16.54;54.34;101057.41;7368277;19;20014;-62
2022/08/17 04:21:29;;;;;;;0.00;0.00;;;;;;;16.41;54.03;101037.75;7368630;19;20054;-62
2022/08/17 04:23:56;;;;;;;0.00;0.00;;;;;;;16.55;54.25;101059.13;7369727;19;20351;-61
2022/08/17 04:26:22;;;;;;;0.00;0.00;;;;;;;16.55;54.40;101052.06;7369894;19;20015;-62
2022/08/17 04:28:47;;;;;;;0.00;0.00;;;;;;;16.55;54.38;101059.13;7367843;19;20015;-62
2022/08/17 04:31:14;;;;;;;0.00;0.00;;;;;;;16.57;53.88;101054.63;7368696;19;20009;-62
2022/08/17 04:33:42;;;;;;;0.00;0.00;;;;;;;16.55;54.18;101054.69;7368898;19;20026;-62
2022/08/17 04:36:09;;;;;;;0.00;0.00;;;;;;;16.59;54.05;101068.63;7368723;19;20014;-62
2022/08/17 04:38:39;;;;;;;0.00;0.00;;;;;;;16.61;53.97;101056.22;7368790;19;20323;-61
2022/08/17 04:43:54;;;;;;;0.00;0.00;;;;;;;16.62;54.07;101068.47;7266960;19;2004370;-62
2022/08/17 04:46:22;;;;;;;0.00;0.00;;;;;;;16.61;53.81;101059.72;7368317;19;20010;-62
2022/08/17 04:48:50;;;;;;;0.00;0.00;;;;;;;16.65;54.36;101065.72;7366759;19;20473;-61
2022/08/17 04:51:29;;;;;;;0.00;0.00;;;;;;;16.66;53.70;101075.34;7368317;19;20014;-62
2022/08/17 04:54:01;;;;;;;0.00;0.00;;;;;;;16.55;54.66;101059.13;7368086;19;20014;-62
2022/08/17 04:56:28;;;;;;;0.00;0.00;;;;;;;16.62;54.76;101073.75;7367924;19;20018;-61
2022/08/17 04:58:57;;;;;;;0.00;0.00;;;;;;;16.62;54.67;101071.13;7368932;19;20026;-60
2022/08/17 05:01:25;;;;;;;0.00;0.00;;;;;;;16.61;55.39;101074.69;7367718;19;20031;-62
2022/08/17 05:03:55;;;;;;;0.00;0.00;;;;;;;16.64;54.58;101084.25;7369558;19;20011;-62
2022/08/17 05:06:21;;;;;;;0.00;0.00;;;;;;;16.60;55.65;101083.50;7367601;19;20007;-63
2022/08/17 05:08:47;;;;;;;0.00;0.00;;;;;;;16.57;55.61;101084.50;7368681;19;20043;-62
2022/08/17 05:11:13;;;;;;;0.10;0.10;;;;;;;16.58;56.18;101085.38;7367897;19;20373;-62
2022/08/17 05:13:39;;;;;;;0.00;0.00;;;;;;;16.55;55.63;101080.22;7369101;19;21998;-62
2022/08/17 05:16:04;;;;;;;0.00;0.00;;;;;;;16.54;55.49;101095.19;7367070;19;20022;-62
2022/08/17 05:18:30;;;;;;;0.00;0.00;;;;;;;16.55;56.16;101096.03;7366418;19;20031;-62
2022/08/17 05:20:56;;;;;;;0.00;0.00;;;;;;;16.55;55.96;101096.03;7367919;19;20481;-62
2022/08/17 05:23:25;;;;;;;0.00;0.00;;;;;;;16.55;56.07;101106.56;7368604;19;20018;-62
2022/08/17 05:25:54;;;;;;;0.00;0.00;;;;;;;16.53;56.08;101108.44;7368247;19;20022;-62
2022/08/17 05:28:20;;;;;;;0.00;0.00;;;;;;;16.51;56.33;101097.06;7368477;19;20021;-62
2022/08/17 05:30:48;;;;;;;0.00;0.00;;;;;;;16.50;56.16;101104.13;7368115;19;20010;-62
2022/08/17 05:33:18;;;;;;;0.00;0.00;;;;;;;16.50;56.51;101101.50;7367278;19;20406;-62
2022/08/17 05:35:46;;;;;;;0.00;0.00;;;;;;;16.51;56.32;101099.72;7366018;19;20013;-62
2022/08/17 05:38:17;;;;;;;0.00;0.00;;;;;;;16.52;56.14;101110.19;7367548;19;20514;-61
2022/08/17 05:40:43;;;;;;;0.00;0.00;;;;;;;16.45;56.71;101095.53;7367938;19;20507;-62
2022/08/17 05:43:12;;;;;;;0.00;0.00;;;;;;;16.50;56.50;101103.28;7368425;19;20666;-62
2022/08/17 05:45:44;;;;;;;0.10;0.10;;;;;;;16.49;56.44;101096.28;7366206;19;20014;-62
2022/08/17 05:48:09;;;;;;;0.10;0.10;;;;;;;16.40;56.45;101091.38;7366837;19;20078;-62
2022/08/17 05:50:54;;;;;;;0.00;0.00;;;;;;;16.51;55.54;101103.19;7367008;19;20145;-62
2022/08/17 05:53:53;;;;;;;0.00;0.00;;;;;;;16.51;55.28;101107.63;7364837;19;20432;-62
2022/08/17 05:56:46;;;;;;;0.00;0.00;;;;;;;16.51;55.85;101111.09;7264258;19;2004310;-62
2022/08/17 05:59:36;;;;;;;0.00;0.00;;;;;;;16.52;55.72;101123.38;7255493;19;2004564;-62
2022/08/17 06:02:20;;;;;;;0.00;0.00;;;;;;;16.50;56.23;101113.81;7363549;19;20013;-62
2022/08/17 06:04:54;;;;;;;0.00;0.00;;;;;;;16.48;56.77;101113.03;7364633;19;20819;-62
2022/08/17 06:07:24;;;;;;;0.00;0.00;;;;;;;16.48;56.67;101120.94;7364704;19;20349;-62
2022/08/17 06:09:52;;;;;;;0.00;0.00;;;;;;;16.49;56.62;101118.22;7364626;19;20011;-62
2022/08/17 06:12:26;;;;;;;0.00;0.00;;;;;;;16.51;56.29;101131.34;7364448;19;20715;-62
2022/08/17 06:15:11;;;;;;;0.00;0.00;;;;;;;16.52;56.05;101130.41;7364652;19;20064;-62
2022/08/17 06:17:37;;;;;;;0.00;0.00;;;;;;;16.47;57.43;101135.03;7361994;19;20011;-62
2022/08/17 06:20:14;;;;;;;0.00;0.00;;;;;;;16.49;56.60;101127.91;7361445;19;20022;-61
2022/08/17 06:22:46;;;;;;;0.00;0.00;;;;;;;16.47;57.17;101132.38;7364051;19;20015;-62
2022/08/17 06:25:16;;;;;;;0.00;0.00;;;;;;;16.44;57.90;101129.88;7365000;19;20040;-62
2022/08/17 06:27:51;;;;;;;0.00;0.00;;;;;;;16.45;57.00;101136.88;7363511;19;21223;-62
2022/08/17 06:30:20;;;;;;;0.00;0.00;;;;;;;16.44;57.52;101141.28;7364771;19;20463;-62
2022/08/17 06:32:48;;;;;;;0.00;0.00;;;;;;;16.32;57.85;101128.56;7362417;19;20020;-62
2022/08/17 06:35:31;;;;;;;0.00;0.00;;;;;;;16.47;56.73;101150.84;7362876;19;20089;-61
2022/08/17 06:38:06;;;;;;;0.00;0.00;;;;;;;16.48;56.92;101147.31;7365340;19;20450;-61
2022/08/17 06:40:34;;;;;;;0.00;0.00;;;;;;;16.48;58.30;101152.56;7363176;19;20010;-62
2022/08/17 06:43:18;;;;;;;0.00;0.00;;;;;;;16.49;56.62;101149.00;7361964;19;20018;-61
2022/08/17 06:45:55;;;;;;;0.00;0.00;;;;;;;16.49;57.74;101151.66;7363558;19;20760;-62
2022/08/17 06:48:27;;;;;;;0.10;0.10;;;;;;;16.49;57.58;101147.22;7364462;19;20573;-62
2022/08/17 06:51:13;;;;;;;0.00;0.00;;;;;;;16.53;56.96;101151.47;7361861;19;20021;-62
2022/08/17 06:53:51;;;;;;;0.00;0.00;;;;;;;16.46;57.20;101134.16;7362582;19;20462;-62
2022/08/17 06:56:32;;;;;;;0.00;0.00;;;;;;;16.51;57.31;101137.47;7362813;19;20006;-62
2022/08/17 06:58:58;;;;;;;0.00;0.00;;;;;;;16.54;58.18;101147.91;7362170;19;20018;-62
2022/08/17 07:01:32;;;;;;;0.00;0.00;;;;;;;16.60;57.95;101152.06;7362092;19;20036;-62
2022/08/17 07:04:07;;;;;;;0.00;0.00;;;;;;;16.64;57.83;101147.53;7363644;19;20473;-62
2022/08/17 07:06:56;;;;;;;0.00;0.00;;;;;;;16.66;57.80;101149.19;7360473;19;20657;-62
2022/08/17 07:09:30;;;;;;;0.00;0.00;;;;;;;16.70;58.25;101153.41;7362591;19;20031;-62
2022/08/17 07:12:08;;;;;;;0.00;0.00;;;;;;;16.65;57.51;101138.69;7361516;19;20022;-61
2022/08/17 07:14:42;;;;;;;0.00;0.00;;;;;;;16.76;58.03;101157.59;7361397;19;20021;-61
2022/08/17 07:17:17;;;;;;;0.00;0.00;;;;;;;16.79;57.29;101160.13;7362156;19;20515;-62
2022/08/17 07:19:44;;;;;;;0.00;0.00;;;;;;;16.77;57.99;101159.31;7361646;19;20427;-62
2022/08/17 07:22:40;;;;;;;0.00;0.00;;;;;;;16.83;56.72;101159.94;7360333;19;20018;-62
2022/08/17 07:25:08;;;;;;;0.00;0.00;;;;;;;16.80;57.92;101154.78;7260656;19;2004586;-62
2022/08/17 07:27:38;;;;;;;0.00;0.00;;;;;;;16.83;57.88;101165.22;7361914;19;20017;-61
2022/08/17 07:30:16;;;;;;;0.00;0.00;;;;;;;16.88;57.10;101161.50;7365149;19;20586;-62
2022/08/17 07:33:01;;;;;;;0.00;0.00;;;;;;;16.90;57.43;101162.31;7369878;19;20015;-62
2022/08/17 07:35:31;;;;;;;0.00;0.00;;;;;;;16.89;57.90;101158.81;7365489;19;20121;-61
2022/08/17 07:38:27;;;;;;;0.00;0.00;;;;;;;16.96;57.11;101154.16;7368794;19;20015;-62
2022/08/17 07:41:01;;;;;;;0.00;0.00;;;;;;;16.97;57.52;101147.94;7266946;19;2004347;-60
2022/08/17 07:43:29;;;;;;;0.00;0.00;;;;;;;17.00;57.50;101147.81;7368475;19;20078;-62
2022/08/17 07:49:14;;;;;;;0.00;0.00;;;;;;;17.16;56.57;101162.06;7265966;19;2004669;-61
2022/08/17 07:51:42;;;;;;;0.00;0.00;;;;;;;17.19;57.89;101154.03;7365458;19;20018;-63
2022/08/17 07:54:14;;;;;;;0.00;0.00;;;;;;;17.24;57.13;101149.41;7368155;19;20010;-62
2022/08/17 07:56:55;;;;;;;0.00;0.00;;;;;;;17.29;57.36;101160.63;7367478;19;20353;-61
2022/08/17 07:59:28;;;;;;;0.03;0.03;;;;;;;17.33;57.58;101162.19;7368314;19;20014;-62
2022/08/17 08:01:53;;;;;;;0.00;0.00;;;;;;;17.36;58.27;101153.28;7365865;19;20157;-62
2022/08/17 08:04:57;;;;;;;0.00;0.00;;;;;;;17.49;56.56;101164.19;7369779;19;20090;-62
2022/08/17 08:07:34;;;;;;;0.00;0.00;;;;;;;17.51;57.39;101157.91;7258407;19;2004384;-61
2022/08/17 08:10:14;;;;;;;0.00;0.00;;;;;;;17.54;58.27;101162.22;7369009;19;20021;-62
2022/08/17 08:12:44;;;;;;;0.10;0.10;;;;;;;17.62;57.91;101157.44;7367594;19;20018;-62
2022/08/17 08:15:22;;;;;;;0.00;0.00;;;;;;;17.68;57.52;101164.22;7367386;19;20020;-61
2022/08/17 08:18:00;;;;;;;0.00;0.00;;;;;;;17.75;57.37;101161.28;7368067;19;20039;-62
2022/08/17 08:20:35;;;;;;;0.00;0.00;;;;;;;17.80;57.73;101154.00;7367514;19;20007;-62
2022/08/17 08:23:06;;;;;;;0.00;0.00;;;;;;;17.87;57.29;101150.13;7367495;19;20426;-62
2022/08/17 08:25:41;;;;;;;0.10;0.10;;;;;;;17.86;57.28;101137.00;7367698;19;20030;-62
2022/08/17 08:28:19;;;;;;;0.08;0.08;;;;;;;17.92;57.43;101138.50;7368084;19;20010;-62
2022/08/17 08:30:52;;;;;;;0.00;0.00;;;;;;;18.08;57.44;101158.00;7367588;19;20082;-62
2022/08/17 08:33:50;;;;;;;0.00;0.00;;;;;;;18.17;56.36;101157.56;7367389;19;20070;-62
2022/08/17 08:36:37;;;;;;;0.00;0.00;;;;;;;18.24;57.13;101148.41;7263973;19;2005200;-62
2022/08/17 08:39:08;;;;;;;0.10;0.10;;;;;;;18.30;57.12;101148.16;7367309;19;20014;-62
2022/08/17 08:41:58;;;;;;;0.00;0.00;;;;;;;18.37;57.11;101152.19;7365665;19;20046;-63
2022/08/17 08:44:46;;;;;;;0.00;0.00;;;;;;;18.45;56.75;101149.19;7368304;19;20471;-62
2022/08/17 08:47:18;;;;;;;0.00;0.00;;;;;;;18.51;57.37;101145.41;7366910;19;20007;-62
2022/08/17 08:50:22;;;;;;;0.10;0.10;;;;;;;18.62;56.43;101151.00;7367758;19;20450;-62
2022/08/17 08:53:05;;;;;;;0.08;0.08;;;;;;;18.70;56.74;101154.16;7264222;19;2004665;-62
2022/08/17 08:55:50;;;;;;;0.10;0.10;;;;;;;18.80;56.60;101149.25;7366553;19;20007;-61
2022/08/17 08:58:33;;;;;;;0.00;0.00;;;;;;;18.87;56.64;101148.91;7367783;19;20014;-62
2022/08/17 09:01:01;;;;;;;0.00;0.00;;;;;;;18.91;57.04;101152.25;7365699;19;20558;-62
2022/08/17 09:03:57;;;;;;;0.05;0.05;;;;;;;19.05;56.59;101154.19;7367235;19;20006;-62
2022/08/17 09:06:50;;;;;;;0.10;0.10;;;;;;;19.17;56.17;101145.63;7263144;19;2004534;-62
2022/08/17 09:09:28;;;;;;;0.00;0.00;;;;;;;19.26;56.73;101154.88;7265977;19;2004883;-61
2022/08/17 09:12:28;;;;;;;0.00;0.00;;;;;;;19.38;56.06;101163.06;7364517;19;20380;-62
2022/08/17 09:15:11;;;;;;;0.10;0.10;;;;;;;19.50;56.08;101158.03;7263118;19;2004396;-61
2022/08/17 09:17:45;;;;;;;0.00;0.00;;;;;;;19.55;55.99;101166.59;7364257;19;20344;-62
2022/08/17 09:20:24;;;;;;;0.00;0.00;;;;;;;19.58;56.02;101166.47;7363860;19;20015;-62
2022/08/17 09:22:56;;;;;;;0.10;0.10;;;;;;;19.67;55.64;101166.00;7367554;19;20475;-62
2022/08/17 09:25:26;;;;;;;0.00;0.00;;;;;;;19.67;55.74;101166.88;7366813;19;20014;-61
2022/08/17 09:28:06;;;;;;;0.10;0.10;;;;;;;19.48;55.51;101122.84;7367511;19;20038;-62
2022/08/17 09:30:48;;;;;;;0.00;0.00;;;;;;;19.69;55.51;101157.03;7366130;19;20021;-62
2022/08/17 09:33:21;;;;;;;0.00;0.00;;;;;;;19.78;55.50;101168.94;7366160;19;20010;-61
2022/08/17 09:35:52;;;;;;;0.10;0.10;;;;;;;19.80;55.95;101167.03;7366145;19;20478;-62
2022/08/17 09:38:54;;;;;;;0.00;0.00;;;;;;;19.84;55.36;101163.28;7367832;19;20018;-62
2022/08/17 09:41:40;;;;;;;0.00;0.00;;;;;;;19.74;55.99;101140.88;7263774;19;2004332;-62
2022/08/17 09:44:29;;;;;;;0.00;0.00;;;;;;;19.81;55.29;101158.16;7366737;19;20021;-62
2022/08/17 09:47:04;;;;;;;0.00;0.00;;;;;;;19.87;55.75;101179.03;7364723;19;20017;-62
2022/08/17 09:49:31;;;;;;;0.00;0.00;;;;;;;19.87;55.96;101188.75;7365675;19;20021;-61
2022/08/17 09:51:59;;;;;;;;;;;;;;;19.93;54.96;101189.31;7365153;19;20014;-61
2022/08/17 09:54:27;;;;;;;0.05;0.05;;;;;;;19.88;56.66;101193.16;7366112;19;19915;-62
2022/08/17 09:57:14;;;;;;;0.03;0.03;;;;;;;19.93;55.97;101193.75;7365893;19;20025;-61
2022/08/17 09:59:54;;;;;;;0.00;0.00;;;;;;;19.89;56.50;101197.50;7365565;19;20014;-62
2022/08/17 10:02:49;;;;;;;0.00;0.00;;;;;;;19.95;55.71;101203.31;7366405;19;20026;-62
2022/08/17 10:05:24;;;;;;;0.00;0.00;;;;;;;19.94;56.03;101198.13;7265052;19;2006188;-62
2022/08/17 10:07:59;;;;;;;0.10;0.10;;;;;;;19.91;57.52;101201.78;7367259;19;20018;-62
2022/08/17 10:10:32;;;;;;;0.00;0.00;;;;;;;19.96;56.90;101199.72;7366976;19;20013;-61
2022/08/17 10:13:14;;;;;;;0.00;0.00;;;;;;;20.00;56.58;101211.03;7365317;19;20010;-62
2022/08/17 10:15:58;;;;;;;0.00;0.00;;;;;;;20.05;56.12;101208.13;7365135;19;20607;-62
2022/08/17 10:18:54;;;;;;;0.00;0.00;;;;;;;20.09;56.71;101204.38;7364047;19;20380;-62
2022/08/17 10:27:02;;;;;;;0.00;0.00;;;;;;;20.22;57.69;101205.41;7264193;19;2004672;-62
2022/08/17 10:29:40;;;;;;;0.00;0.00;;;;;;;20.27;57.96;101207.81;7366373;19;20007;-62
2022/08/17 10:32:10;;;;;;;0.00;0.00;;;;;;;20.33;57.72;101204.84;7364096;19;20006;-62
2022/08/17 10:35:16;;;;;;;0.00;0.00;;;;;;;20.43;56.32;101201.59;7366724;19;20026;-62
2022/08/17 10:38:04;;;;;;;0.03;0.03;;;;;;;20.48;56.57;101201.38;7263275;19;2004300;-62
2022/08/17 10:40:48;;;;;;;0.00;0.00;;;;;;;20.53;56.87;101206.38;7364521;19;20461;-62
2022/08/17 10:43:37;;;;;;;0.00;0.00;;;;;;;20.60;56.60;101202.47;7366361;19;20031;-61
2022/08/17 10:46:30;;;;;;;0.10;0.10;;;;;;;20.66;57.47;101210.06;7364979;19;20553;-62
2022/08/17 10:49:17;;;;;;;0.00;0.00;;;;;;;20.82;56.28;101210.91;7260396;19;2004411;-61
2022/08/17 10:51:46;;;;;;;0.00;0.00;;;;;;;20.87;57.12;101200.88;7365423;19;20786;-62
2022/08/17 10:54:24;;;;;;;0.00;0.00;;;;;;;21.04;56.75;101199.91;7364961;19;20965;-62
2022/08/17 10:56:52;;;;;;;0.00;0.00;;;;;;;21.12;57.27;101199.44;7364934;19;20484;-61
2022/08/17 10:59:35;;;;;;;0.00;0.00;;;;;;;21.40;56.35;101191.59;7364545;19;20055;-62
2022/08/17 11:02:03;;;;;;;0.10;0.10;;;;;;;21.55;56.26;101188.97;7364020;19;20010;-62
2022/08/17 11:04:35;;;;;;;0.00;0.00;;;;;;;21.85;55.45;101187.09;7368421;19;20030;-61
2022/08/17 11:07:11;;;;;;;0.08;0.08;;;;;;;22.08;55.08;101190.09;7370567;19;20014;-62
2022/08/17 11:09:51;;;;;;;0.10;0.10;;;;;;;22.24;54.69;101193.53;7372693;19;20077;-62
2022/08/17 11:12:31;;;;;;;0.00;0.00;;;;;;;22.36;54.64;101200.72;7369386;19;20014;-62
2022/08/17 11:15:20;;;;;;;0.00;0.00;;;;;;;22.54;54.48;101201.34;7371446;19;20018;-62
2022/08/17 11:18:06;;;;;;;0.10;0.10;;;;;;;22.67;54.13;101196.09;7371156;19;20499;-62
2022/08/17 11:20:59;;;;;;;0.00;0.00;;;;;;;22.79;53.73;101195.28;7369344;19;20572;-62
2022/08/17 11:23:39;;;;;;;0.00;0.00;;;;;;;22.88;53.63;101188.50;7268426;19;2004358;-62
2022/08/17 11:26:25;;;;;;;0.00;0.00;;;;;;;22.99;53.16;101191.31;7371170;19;20037;-62
2022/08/17 11:28:57;;;;;;;0.00;0.00;;;;;;;22.98;52.40;101192.28;7370188;19;20006;-62
2022/08/17 11:31:32;;;;;;;0.00;0.00;;;;;;;22.98;52.51;101195.78;7371235;19;20010;-62
2022/08/17 11:34:03;;;;;;;0.00;0.00;;;;;;;23.02;52.47;101194.63;7370681;19;20014;-61
2022/08/17 11:36:40;;;;;;;0.00;0.00;;;;;;;23.00;52.18;101209.84;7370362;19;20013;-62
2022/08/17 11:39:19;;;;;;;;;;;;;;;23.08;52.45;101200.50;7372627;19;20568;-62
2022/08/17 11:42:10;;;;;;;0.00;0.00;;;;;;;23.03;52.25;101204.31;7369815;19;20255;-62
2022/08/17 11:44:49;;;;;;;0.00;0.00;;;;;;;23.00;52.35;101201.84;7269021;19;2004661;-62
2022/08/17 11:53:37;;;;;;;0.00;0.00;;;;;;;22.82;51.81;101213.72;7265662;19;2004787;-62
2022/08/17 11:56:08;;;;;;;0.00;0.00;;;;;;;22.73;51.90;101211.66;7368010;19;20644;-62
2022/08/17 11:58:41;;;;;;;0.00;0.00;;;;;;;22.71;51.62;101218.91;7369246;19;20039;-62
2022/08/17 12:01:31;;;;;;;0.00;0.00;;;;;;;22.69;51.65;101216.31;7369874;19;20002;-62
2022/08/17 12:04:47;;;;;;;0.10;0.10;;;;;;;22.70;51.54;101211.84;7369448;19;20013;-62
2022/08/17 12:07:17;;;;;;;0.00;0.00;;;;;;;22.65;51.95;101216.63;7263477;19;2004491;-62
2022/08/17 12:09:48;;;;;;;0.00;0.00;;;;;;;22.64;52.02;101218.41;7369778;19;20017;-62
2022/08/17 12:12:20;;;;;;;0.10;0.10;;;;;;;22.61;51.60;101207.09;7368897;19;20317;-61
2022/08/17 12:14:50;;;;;;;0.00;0.00;;;;;;;22.66;51.34;101210.34;7367387;19;20024;-62
2022/08/17 12:17:22;;;;;;;0.00;0.00;;;;;;;22.69;51.99;101210.13;7366543;19;20013;-62
2022/08/17 12:19:47;;;;;;;0.10;0.10;;;;;;;22.66;51.65;101202.38;7369226;19;20010;-62
2022/08/17 12:22:31;;;;;;;0.00;0.00;;;;;;;22.74;51.64;101198.22;7368655;19;20595;-62